Fingard — OJNG — position and weather

sailwx.info

Track history (hours):
 
Tides and Currents Weather Stations Pressure Air Temp Water Temp Dewpoint Dewpoint Depression Visibility Wind Speed Wind Dir Waves Ship Positions

Fingard

Last reported at 2014-Aug-14 06:31 UTC. Time now 2014-Aug-22 02:04 UTC.
Position N 57°40' E 018°04'.

Length 95 m; draft 4 m.

Type: Ship. MMSI: 230999000.

Date/timePositionNaut miles runAvg speedWind from/ knotsBaromVisibWave heightAir tempDewpointWater temp
2014-Aug-14 06:31N 57°40' E 018°04'1511.9
2014-Aug-14 05:17N 57°28' E 017°48'912.1
2014-Aug-14 04:33N 57°20' E 017°42'1212.1
2014-Aug-14 03:33N 57°08' E 017°34'1212.2
2014-Aug-14 02:33N 56°57' E 017°26'1212.1
2014-Aug-14 01:33N 56°46' E 017°18'1212.1
2014-Aug-14 00:33N 56°34' E 017°10'1212.2
2014-Aug-13 23:33N 56°23' E 017°01'1412.3
2014-Aug-13 22:25N 56°10' E 016°51'1511.5
2014-Aug-13 21:08N 55°60' E 016°33'711.8
2014-Aug-13 20:33N 55°56' E 016°22'1611.8
2014-Aug-13 19:14N 55°48' E 015°58'811.8
2014-Aug-13 18:33N 55°44' E 015°46'2512.1
2014-Aug-13 16:31N 55°32' E 015°09'1212.4
2014-Aug-13 15:33N 55°26' E 014°50'1212.0
2014-Aug-13 14:33N 55°18' E 014°33'1212.3
2014-Aug-13 13:33N 55°10' E 014°17'12 1.7
2014-Aug-13 06:33N 55°11' E 013°56'5 4.9
2014-Aug-13 05:33N 55°11' E 013°47'1312.5
2014-Aug-13 04:33N 55°12' E 013°25'1312.7
2014-Aug-13 03:33N 55°14' E 013°03'1212.2
2014-Aug-13 02:33N 55°17' E 012°42'9 9.6
2014-Aug-13 01:33N 55°26' E 012°40'1211.7
2014-Aug-13 00:33N 55°38' E 012°42'10 9.9
2014-Aug-12 23:33N 55°48' E 012°42'5 5.1
2014-Aug-12 22:34N 55°52' E 012°48'1 1.4
2014-Aug-12 21:31N 55°51' E 012°50'0 0.0
2014-Aug-12 20:31N 55°51' E 012°50'0 0.0
2014-Aug-12 19:31N 55°51' E 012°50'0 0.0
2014-Aug-12 18:31N 55°51' E 012°50'0 0.0
2014-Aug-12 17:31N 55°51' E 012°50'0 0.0
2014-Aug-12 16:31N 55°51' E 012°50'0 0.0
2014-Aug-12 15:31N 55°51' E 012°50'0 0.0
2014-Aug-12 14:31N 55°51' E 012°50'0 0.0
2014-Aug-12 13:31N 55°51' E 012°50'0 0.0
2014-Aug-12 12:31N 55°51' E 012°50'0 0.0
2014-Aug-12 11:31N 55°51' E 012°50'0 0.0
2014-Aug-12 10:31N 55°51' E 012°50'0 0.0
2014-Aug-12 09:31N 55°51' E 012°50'0 0.0
2014-Aug-12 08:31N 55°51' E 012°50'0 0.0
2014-Aug-12 07:31N 55°51' E 012°50'0 0.0
2014-Aug-12 06:31N 55°51' E 012°50'0 0.0
2014-Aug-12 05:31N 55°51' E 012°50'0 0.0
2014-Aug-12 04:31N 55°51' E 012°50'0 0.0
2014-Aug-12 03:31N 55°51' E 012°50'0 0.0
2014-Aug-12 02:31N 55°51' E 012°50'0 0.0
2014-Aug-12 01:31N 55°51' E 012°50'0 0.0
2014-Aug-12 00:31N 55°51' E 012°50'0 0.0
2014-Aug-11 23:31N 55°51' E 012°50'0 0.0
2014-Aug-11 22:31N 55°51' E 012°50'0 0.0
2014-Aug-11 21:31N 55°51' E 012°50'0 0.0
2014-Aug-11 20:31N 55°51' E 012°50'0 0.0
2014-Aug-11 19:31N 55°51' E 012°50'0 0.0
2014-Aug-11 18:34N 55°51' E 012°50'0 0.0
2014-Aug-11 17:33N 55°51' E 012°50'0 0.0
2014-Aug-11 16:33N 55°51' E 012°50'0 0.1
2014-Aug-11 15:33N 55°52' E 012°50'0 0.0
2014-Aug-11 14:33N 55°52' E 012°50'0 0.0
2014-Aug-11 13:33N 55°52' E 012°50'0 0.0
2014-Aug-11 12:33N 55°52' E 012°50'0 0.0
2014-Aug-11 11:33N 55°52' E 012°50'0 0.0
2014-Aug-11 10:33N 55°52' E 012°50'0 0.0
2014-Aug-11 09:33N 55°52' E 012°50'0 0.0
2014-Aug-11 08:33N 55°52' E 012°50'0 0.0
2014-Aug-11 07:33N 55°52' E 012°50'0 0.0
2014-Aug-11 06:33N 55°52' E 012°50'0 0.0
2014-Aug-11 05:33N 55°52' E 012°50'0 0.0
2014-Aug-11 04:33N 55°52' E 012°50'0 0.0
2014-Aug-11 03:33N 55°52' E 012°50'0 0.0
2014-Aug-11 02:33N 55°52' E 012°50'0 0.0
2014-Aug-11 01:33N 55°52' E 012°50'0 0.0
2014-Aug-11 00:33N 55°52' E 012°50'0 0.0
2014-Aug-10 23:33N 55°52' E 012°50'0 0.0
2014-Aug-10 22:33N 55°52' E 012°50'0 0.0
2014-Aug-10 21:33N 55°52' E 012°50'0 0.0
2014-Aug-10 20:33N 55°52' E 012°50'0 0.0
2014-Aug-10 19:33N 55°52' E 012°50'0 0.0
2014-Aug-10 18:33N 55°52' E 012°50'0 0.0
2014-Aug-10 17:33N 55°52' E 012°50'0 0.0
2014-Aug-10 16:33N 55°52' E 012°50'0 0.0
2014-Aug-10 15:33N 55°52' E 012°50'0 0.0
2014-Aug-10 14:33N 55°52' E 012°50'0 0.0
2014-Aug-10 13:33N 55°52' E 012°50'0 0.0
2014-Aug-10 12:33N 55°52' E 012°50'0 0.0
2014-Aug-10 11:32N 55°52' E 012°50'0 0.0
2014-Aug-10 10:32N 55°52' E 012°50'0 0.0
2014-Aug-10 09:32N 55°52' E 012°50'0 0.0
2014-Aug-10 08:32N 55°52' E 012°50'0 0.0
2014-Aug-10 07:32N 55°52' E 012°50'0 0.0
2014-Aug-10 06:32N 55°52' E 012°50'0 0.0
2014-Aug-10 05:32N 55°52' E 012°50'0 0.0
2014-Aug-10 04:29N 55°52' E 012°50'0 0.0
2014-Aug-10 03:32N 55°52' E 012°50'0 0.0
2014-Aug-10 02:32N 55°52' E 012°50'0 0.0
2014-Aug-10 01:32N 55°52' E 012°50'0 0.0
2014-Aug-10 00:32N 55°52' E 012°50'0 0.0
2014-Aug-09 23:32N 55°52' E 012°50'0 0.0
2014-Aug-09 22:32N 55°52' E 012°50'0 0.0
2014-Aug-09 21:32N 55°52' E 012°50'0 0.0
2014-Aug-09 20:32N 55°52' E 012°50'0 0.0
2014-Aug-09 19:32N 55°52' E 012°50'0 0.0
2014-Aug-09 18:32N 55°52' E 012°50'0 0.0
2014-Aug-09 17:32N 55°52' E 012°50'0 0.0
2014-Aug-09 16:32N 55°52' E 012°50'0 0.0
2014-Aug-09 15:32N 55°52' E 012°50'0 0.0
2014-Aug-09 14:32N 55°52' E 012°50'0 0.0
2014-Aug-09 13:32N 55°52' E 012°50'0 0.0
2014-Aug-09 12:32N 55°52' E 012°50'0 0.0
2014-Aug-09 11:32N 55°52' E 012°50'0 0.0
2014-Aug-09 10:32N 55°52' E 012°50'0 0.0
2014-Aug-09 09:32N 55°52' E 012°50'0 0.0
2014-Aug-09 08:32N 55°52' E 012°50'0 0.0
2014-Aug-09 07:32N 55°52' E 012°50'0 0.0
2014-Aug-09 06:32N 55°52' E 012°50'0 0.0
2014-Aug-09 05:32N 55°52' E 012°50'0 0.0
2014-Aug-09 04:31N 55°52' E 012°50'0 0.0
2014-Aug-09 03:31N 55°52' E 012°50'0 0.0
2014-Aug-09 02:31N 55°52' E 012°50'0 0.0
2014-Aug-09 01:31N 55°52' E 012°50'0 0.0
2014-Aug-09 00:31N 55°52' E 012°50'0 0.0
2014-Aug-08 23:31N 55°52' E 012°50'0 0.0
2014-Aug-08 22:31N 55°52' E 012°50'0 0.0
2014-Aug-08 21:31N 55°52' E 012°50'0 0.0
2014-Aug-08 20:31N 55°52' E 012°50'0 0.0
2014-Aug-08 19:31N 55°52' E 012°50'0 0.0
2014-Aug-08 18:31N 55°52' E 012°50'0 0.0
2014-Aug-08 17:31N 55°52' E 012°50'0 0.0
2014-Aug-08 16:31N 55°52' E 012°50'0 0.0
2014-Aug-08 15:31N 55°52' E 012°50'0 0.0
2014-Aug-08 14:31N 55°52' E 012°50'0 0.0
2014-Aug-08 13:31N 55°52' E 012°50'0 0.0
2014-Aug-08 12:31N 55°52' E 012°50'0 0.0
2014-Aug-08 11:31N 55°52' E 012°50'0 0.0
2014-Aug-08 10:31N 55°52' E 012°50'0 0.0
2014-Aug-08 09:31N 55°52' E 012°50'0 0.0
2014-Aug-08 08:31N 55°52' E 012°50'0 0.0
2014-Aug-08 07:31N 55°52' E 012°50'0 0.0
2014-Aug-08 06:31N 55°52' E 012°50'0 0.0
2014-Aug-08 05:31N 55°52' E 012°50'0 0.0
2014-Aug-08 04:28N 55°52' E 012°50'0 0.0
2014-Aug-08 03:31N 55°52' E 012°50'0 0.0
2014-Aug-08 02:31N 55°52' E 012°50'0 0.0
2014-Aug-08 01:28N 55°52' E 012°50'0 0.0
2014-Aug-08 00:31N 55°52' E 012°50'0 0.0
2014-Aug-07 23:34N 55°52' E 012°50'0 0.0
2014-Aug-07 22:33N 55°52' E 012°50'0 0.0
2014-Aug-07 21:33N 55°52' E 012°50'0 0.0
2014-Aug-07 20:33N 55°52' E 012°50'0 0.0
2014-Aug-07 19:33N 55°52' E 012°50'0 0.0
2014-Aug-07 18:33N 55°52' E 012°50'0 0.0
2014-Aug-07 17:33N 55°52' E 012°50'0 0.0
2014-Aug-07 16:33N 55°52' E 012°50'0 0.0
2014-Aug-07 15:33N 55°52' E 012°50'0 0.0
2014-Aug-07 14:33N 55°52' E 012°50'0 0.0
2014-Aug-07 13:33N 55°52' E 012°50'0 0.0
2014-Aug-07 12:33N 55°52' E 012°50'0 0.0
2014-Aug-07 11:33N 55°52' E 012°50'0 0.0
2014-Aug-07 10:33N 55°52' E 012°50'0 0.0
2014-Aug-07 09:33N 55°52' E 012°50'0 0.0
2014-Aug-07 08:33N 55°52' E 012°50'0 0.0
2014-Aug-07 07:33N 55°52' E 012°50'0 0.0
2014-Aug-07 06:33N 55°52' E 012°50'0 0.0
2014-Aug-07 05:33N 55°52' E 012°50'0 0.0
2014-Aug-07 04:33N 55°52' E 012°50'0 0.0
2014-Aug-07 03:33N 55°52' E 012°50'0 0.0
2014-Aug-07 02:33N 55°52' E 012°50'0 0.0
2014-Aug-07 01:33N 55°52' E 012°50'0 0.0
2014-Aug-07 00:33N 55°52' E 012°50'0 0.0
2014-Aug-06 23:33N 55°52' E 012°50'0 0.0
2014-Aug-06 22:33N 55°52' E 012°50'0 0.0
2014-Aug-06 21:33N 55°52' E 012°50'0 0.0
2014-Aug-06 20:33N 55°52' E 012°50'0 0.0
2014-Aug-06 19:33N 55°52' E 012°50'0 0.0
2014-Aug-06 18:33N 55°52' E 012°50'0 0.0
2014-Aug-06 17:33N 55°52' E 012°50'0 0.0
2014-Aug-06 16:32N 55°52' E 012°50'0 0.0
2014-Aug-06 15:32N 55°52' E 012°50'0 0.0
2014-Aug-06 14:32N 55°52' E 012°50'0 0.0
2014-Aug-06 13:32N 55°52' E 012°50'0 0.0
2014-Aug-06 12:32N 55°52' E 012°50'0 0.0
2014-Aug-06 11:32N 55°52' E 012°50'0 0.0
2014-Aug-06 10:32N 55°52' E 012°50'0 0.0
2014-Aug-06 09:32N 55°52' E 012°50'0 0.0
2014-Aug-06 08:32N 55°52' E 012°50'0 0.0
2014-Aug-06 07:32N 55°52' E 012°50'0 0.0
2014-Aug-06 06:32N 55°52' E 012°50'0 0.0
2014-Aug-06 05:32N 55°52' E 012°50'0 0.0
2014-Aug-06 04:32N 55°52' E 012°50'0 0.0
2014-Aug-06 03:32N 55°52' E 012°50'0 0.0
2014-Aug-06 02:29N 55°52' E 012°50'0 0.0
2014-Aug-06 01:32N 55°52' E 012°50'0 0.0
2014-Aug-06 00:32N 55°52' E 012°50'0 0.0
2014-Aug-05 23:32N 55°52' E 012°50'0 0.0
2014-Aug-05 22:32N 55°52' E 012°50'0 0.0
2014-Aug-05 21:32N 55°52' E 012°50'0 0.0
2014-Aug-05 20:32N 55°52' E 012°50'0 0.0
2014-Aug-05 19:32N 55°52' E 012°50'0 0.0
2014-Aug-05 18:32N 55°52' E 012°50'0 0.0
2014-Aug-05 17:32N 55°52' E 012°50'0 0.0
2014-Aug-05 16:32N 55°52' E 012°50'0 0.0
2014-Aug-05 15:32N 55°52' E 012°50'0 0.0
2014-Aug-05 14:32N 55°52' E 012°50'0 0.0
2014-Aug-05 13:32N 55°52' E 012°50'0 0.0
2014-Aug-05 12:32N 55°52' E 012°50'0 0.0
2014-Aug-05 11:32N 55°52' E 012°50'0 0.0
2014-Aug-05 10:32N 55°52' E 012°50'0 0.0
2014-Aug-05 09:31N 55°52' E 012°50'0 0.0
2014-Aug-05 08:31N 55°52' E 012°50'0 0.0
2014-Aug-05 07:31N 55°52' E 012°50'0 0.0
2014-Aug-05 06:31N 55°52' E 012°50'0 0.0
2014-Aug-05 05:31N 55°52' E 012°50'0 0.0
2014-Aug-05 04:31N 55°52' E 012°50'0 0.0
2014-Aug-05 03:28N 55°52' E 012°50'0 0.0
2014-Aug-05 02:31N 55°52' E 012°50'0 0.0
2014-Aug-05 01:31N 55°52' E 012°50'0 0.0
2014-Aug-05 00:31N 55°52' E 012°50'0 0.0
2014-Aug-04 23:31N 55°52' E 012°50'0 0.0
2014-Aug-04 22:31N 55°52' E 012°50'0 0.0
2014-Aug-04 21:31N 55°52' E 012°50'0 0.0
2014-Aug-04 20:31N 55°52' E 012°50'0 0.0
2014-Aug-04 19:31N 55°52' E 012°50'0 0.0
2014-Aug-04 18:31N 55°52' E 012°50'0 0.0
2014-Aug-04 17:31N 55°52' E 012°50'0 0.0
2014-Aug-04 16:31N 55°52' E 012°50'0 0.0
2014-Aug-04 15:31N 55°52' E 012°50'0 0.0
2014-Aug-04 14:31N 55°52' E 012°50'0 0.0
2014-Aug-04 13:28N 55°52' E 012°50'0 0.0
2014-Aug-04 12:31N 55°52' E 012°50'0 0.0
2014-Aug-04 11:31N 55°52' E 012°50'0 0.0
2014-Aug-04 10:31N 55°52' E 012°50'0 0.0
2014-Aug-04 09:31N 55°52' E 012°50'0 0.0
2014-Aug-04 08:31N 55°52' E 012°50'0 0.0
2014-Aug-04 07:31N 55°52' E 012°50'  
Track history (hours):
 
Tides and Currents Weather Stations Pressure Air Temp Water Temp Dewpoint Dewpoint Depression Visibility Wind Speed Wind Dir Waves Ship Positions

Fingard

Last reported at 2014-Aug-14 06:31 UTC. Time now 2014-Aug-22 02:04 UTC.
Position N 57°40' E 018°04'.

Length 95 m; draft 4 m.

Type: Ship. MMSI: 230999000.

Date/timePositionNaut miles runAvg speedWind from/ knotsBaromVisibWave heightAir tempDewpointWater temp
2014-Aug-14 06:31N 57°40' E 018°04'1511.9
2014-Aug-14 05:17N 57°28' E 017°48'912.1
2014-Aug-14 04:33N 57°20' E 017°42'1212.1
2014-Aug-14 03:33N 57°08' E 017°34'1212.2
2014-Aug-14 02:33N 56°57' E 017°26'1212.1
2014-Aug-14 01:33N 56°46' E 017°18'1212.1
2014-Aug-14 00:33N 56°34' E 017°10'1212.2
2014-Aug-13 23:33N 56°23' E 017°01'1412.3
2014-Aug-13 22:25N 56°10' E 016°51'1511.5
2014-Aug-13 21:08N 55°60' E 016°33'711.8
2014-Aug-13 20:33N 55°56' E 016°22'1611.8
2014-Aug-13 19:14N 55°48' E 015°58'811.8
2014-Aug-13 18:33N 55°44' E 015°46'2512.1
2014-Aug-13 16:31N 55°32' E 015°09'1212.4
2014-Aug-13 15:33N 55°26' E 014°50'1212.0
2014-Aug-13 14:33N 55°18' E 014°33'1212.3
2014-Aug-13 13:33N 55°10' E 014°17'12 1.7
2014-Aug-13 06:33N 55°11' E 013°56'5 4.9
2014-Aug-13 05:33N 55°11' E 013°47'1312.5
2014-Aug-13 04:33N 55°12' E 013°25'1312.7
2014-Aug-13 03:33N 55°14' E 013°03'1212.2
2014-Aug-13 02:33N 55°17' E 012°42'9 9.6
2014-Aug-13 01:33N 55°26' E 012°40'1211.7
2014-Aug-13 00:33N 55°38' E 012°42'10 9.9
2014-Aug-12 23:33N 55°48' E 012°42'5 5.1
2014-Aug-12 22:34N 55°52' E 012°48'1 1.4
2014-Aug-12 21:31N 55°51' E 012°50'0 0.0
2014-Aug-12 20:31N 55°51' E 012°50'0 0.0
2014-Aug-12 19:31N 55°51' E 012°50'0 0.0
2014-Aug-12 18:31N 55°51' E 012°50'0 0.0
2014-Aug-12 17:31N 55°51' E 012°50'0 0.0
2014-Aug-12 16:31N 55°51' E 012°50'0 0.0
2014-Aug-12 15:31N 55°51' E 012°50'0 0.0
2014-Aug-12 14:31N 55°51' E 012°50'0 0.0
2014-Aug-12 13:31N 55°51' E 012°50'0 0.0
2014-Aug-12 12:31N 55°51' E 012°50'0 0.0
2014-Aug-12 11:31N 55°51' E 012°50'0 0.0
2014-Aug-12 10:31N 55°51' E 012°50'0 0.0
2014-Aug-12 09:31N 55°51' E 012°50'0 0.0
2014-Aug-12 08:31N 55°51' E 012°50'0 0.0
2014-Aug-12 07:31N 55°51' E 012°50'0 0.0
2014-Aug-12 06:31N 55°51' E 012°50'0 0.0
2014-Aug-12 05:31N 55°51' E 012°50'0 0.0
2014-Aug-12 04:31N 55°51' E 012°50'0 0.0
2014-Aug-12 03:31N 55°51' E 012°50'0 0.0
2014-Aug-12 02:31N 55°51' E 012°50'0 0.0
2014-Aug-12 01:31N 55°51' E 012°50'0 0.0
2014-Aug-12 00:31N 55°51' E 012°50'0 0.0
2014-Aug-11 23:31N 55°51' E 012°50'0 0.0
2014-Aug-11 22:31N 55°51' E 012°50'0 0.0
2014-Aug-11 21:31N 55°51' E 012°50'0 0.0
2014-Aug-11 20:31N 55°51' E 012°50'0 0.0
2014-Aug-11 19:31N 55°51' E 012°50'0 0.0
2014-Aug-11 18:34N 55°51' E 012°50'0 0.0
2014-Aug-11 17:33N 55°51' E 012°50'0 0.0
2014-Aug-11 16:33N 55°51' E 012°50'0 0.1
2014-Aug-11 15:33N 55°52' E 012°50'0 0.0
2014-Aug-11 14:33N 55°52' E 012°50'0 0.0
2014-Aug-11 13:33N 55°52' E 012°50'0 0.0
2014-Aug-11 12:33N 55°52' E 012°50'0 0.0
2014-Aug-11 11:33N 55°52' E 012°50'0 0.0
2014-Aug-11 10:33N 55°52' E 012°50'0 0.0
2014-Aug-11 09:33N 55°52' E 012°50'0 0.0
2014-Aug-11 08:33N 55°52' E 012°50'0 0.0
2014-Aug-11 07:33N 55°52' E 012°50'0 0.0
2014-Aug-11 06:33N 55°52' E 012°50'0 0.0
2014-Aug-11 05:33N 55°52' E 012°50'0 0.0
2014-Aug-11 04:33N 55°52' E 012°50'0 0.0
2014-Aug-11 03:33N 55°52' E 012°50'0 0.0
2014-Aug-11 02:33N 55°52' E 012°50'0 0.0
2014-Aug-11 01:33N 55°52' E 012°50'0 0.0
2014-Aug-11 00:33N 55°52' E 012°50'0 0.0
2014-Aug-10 23:33N 55°52' E 012°50'0 0.0
2014-Aug-10 22:33N 55°52' E 012°50'0 0.0
2014-Aug-10 21:33N 55°52' E 012°50'0 0.0
2014-Aug-10 20:33N 55°52' E 012°50'0 0.0
2014-Aug-10 19:33N 55°52' E 012°50'0 0.0
2014-Aug-10 18:33N 55°52' E 012°50'0 0.0
2014-Aug-10 17:33N 55°52' E 012°50'0 0.0
2014-Aug-10 16:33N 55°52' E 012°50'0 0.0
2014-Aug-10 15:33N 55°52' E 012°50'0 0.0
2014-Aug-10 14:33N 55°52' E 012°50'0 0.0
2014-Aug-10 13:33N 55°52' E 012°50'0 0.0
2014-Aug-10 12:33N 55°52' E 012°50'0 0.0
2014-Aug-10 11:32N 55°52' E 012°50'0 0.0
2014-Aug-10 10:32N 55°52' E 012°50'0 0.0
2014-Aug-10 09:32N 55°52' E 012°50'0 0.0
2014-Aug-10 08:32N 55°52' E 012°50'0 0.0
2014-Aug-10 07:32N 55°52' E 012°50'0 0.0
2014-Aug-10 06:32N 55°52' E 012°50'0 0.0
2014-Aug-10 05:32N 55°52' E 012°50'0 0.0
2014-Aug-10 04:29N 55°52' E 012°50'0 0.0
2014-Aug-10 03:32N 55°52' E 012°50'0 0.0
2014-Aug-10 02:32N 55°52' E 012°50'0 0.0
2014-Aug-10 01:32N 55°52' E 012°50'0 0.0
2014-Aug-10 00:32N 55°52' E 012°50'0 0.0
2014-Aug-09 23:32N 55°52' E 012°50'0 0.0
2014-Aug-09 22:32N 55°52' E 012°50'0 0.0
2014-Aug-09 21:32N 55°52' E 012°50'0 0.0
2014-Aug-09 20:32N 55°52' E 012°50'0 0.0
2014-Aug-09 19:32N 55°52' E 012°50'0 0.0
2014-Aug-09 18:32N 55°52' E 012°50'0 0.0
2014-Aug-09 17:32N 55°52' E 012°50'0 0.0
2014-Aug-09 16:32N 55°52' E 012°50'0 0.0
2014-Aug-09 15:32N 55°52' E 012°50'0 0.0
2014-Aug-09 14:32N 55°52' E 012°50'0 0.0
2014-Aug-09 13:32N 55°52' E 012°50'0 0.0
2014-Aug-09 12:32N 55°52' E 012°50'0 0.0
2014-Aug-09 11:32N 55°52' E 012°50'0 0.0
2014-Aug-09 10:32N 55°52' E 012°50'0 0.0
2014-Aug-09 09:32N 55°52' E 012°50'0 0.0
2014-Aug-09 08:32N 55°52' E 012°50'0 0.0
2014-Aug-09 07:32N 55°52' E 012°50'0 0.0
2014-Aug-09 06:32N 55°52' E 012°50'0 0.0
2014-Aug-09 05:32N 55°52' E 012°50'0 0.0
2014-Aug-09 04:31N 55°52' E 012°50'0 0.0
2014-Aug-09 03:31N 55°52' E 012°50'0 0.0
2014-Aug-09 02:31N 55°52' E 012°50'0 0.0
2014-Aug-09 01:31N 55°52' E 012°50'0 0.0
2014-Aug-09 00:31N 55°52' E 012°50'0 0.0
2014-Aug-08 23:31N 55°52' E 012°50'0 0.0
2014-Aug-08 22:31N 55°52' E 012°50'0 0.0
2014-Aug-08 21:31N 55°52' E 012°50'0 0.0
2014-Aug-08 20:31N 55°52' E 012°50'0 0.0
2014-Aug-08 19:31N 55°52' E 012°50'0 0.0
2014-Aug-08 18:31N 55°52' E 012°50'0 0.0
2014-Aug-08 17:31N 55°52' E 012°50'0 0.0
2014-Aug-08 16:31N 55°52' E 012°50'0 0.0
2014-Aug-08 15:31N 55°52' E 012°50'0 0.0
2014-Aug-08 14:31N 55°52' E 012°50'0 0.0
2014-Aug-08 13:31N 55°52' E 012°50'0 0.0
2014-Aug-08 12:31N 55°52' E 012°50'0 0.0
2014-Aug-08 11:31N 55°52' E 012°50'0 0.0
2014-Aug-08 10:31N 55°52' E 012°50'0 0.0
2014-Aug-08 09:31N 55°52' E 012°50'0 0.0
2014-Aug-08 08:31N 55°52' E 012°50'0 0.0
2014-Aug-08 07:31N 55°52' E 012°50'0 0.0
2014-Aug-08 06:31N 55°52' E 012°50'0 0.0
2014-Aug-08 05:31N 55°52' E 012°50'0 0.0
2014-Aug-08 04:28N 55°52' E 012°50'0 0.0
2014-Aug-08 03:31N 55°52' E 012°50'0 0.0
2014-Aug-08 02:31N 55°52' E 012°50'0 0.0
2014-Aug-08 01:28N 55°52' E 012°50'0 0.0
2014-Aug-08 00:31N 55°52' E 012°50'0 0.0
2014-Aug-07 23:34N 55°52' E 012°50'0 0.0
2014-Aug-07 22:33N 55°52' E 012°50'0 0.0
2014-Aug-07 21:33N 55°52' E 012°50'0 0.0
2014-Aug-07 20:33N 55°52' E 012°50'0 0.0
2014-Aug-07 19:33N 55°52' E 012°50'0 0.0
2014-Aug-07 18:33N 55°52' E 012°50'0 0.0
2014-Aug-07 17:33N 55°52' E 012°50'0 0.0
2014-Aug-07 16:33N 55°52' E 012°50'0 0.0
2014-Aug-07 15:33N 55°52' E 012°50'0 0.0
2014-Aug-07 14:33N 55°52' E 012°50'0 0.0
2014-Aug-07 13:33N 55°52' E 012°50'0 0.0
2014-Aug-07 12:33N 55°52' E 012°50'0 0.0
2014-Aug-07 11:33N 55°52' E 012°50'0 0.0
2014-Aug-07 10:33N 55°52' E 012°50'0 0.0
2014-Aug-07 09:33N 55°52' E 012°50'0 0.0
2014-Aug-07 08:33N 55°52' E 012°50'0 0.0
2014-Aug-07 07:33N 55°52' E 012°50'0 0.0
2014-Aug-07 06:33N 55°52' E 012°50'0 0.0
2014-Aug-07 05:33N 55°52' E 012°50'0 0.0
2014-Aug-07 04:33N 55°52' E 012°50'0 0.0
2014-Aug-07 03:33N 55°52' E 012°50'0 0.0
2014-Aug-07 02:33N 55°52' E 012°50'0 0.0
2014-Aug-07 01:33N 55°52' E 012°50'0 0.0
2014-Aug-07 00:33N 55°52' E 012°50'0 0.0
2014-Aug-06 23:33N 55°52' E 012°50'0 0.0
2014-Aug-06 22:33N 55°52' E 012°50'0 0.0
2014-Aug-06 21:33N 55°52' E 012°50'0 0.0
2014-Aug-06 20:33N 55°52' E 012°50'0 0.0
2014-Aug-06 19:33N 55°52' E 012°50'0 0.0
2014-Aug-06 18:33N 55°52' E 012°50'0 0.0
2014-Aug-06 17:33N 55°52' E 012°50'0 0.0
2014-Aug-06 16:32N 55°52' E 012°50'0 0.0
2014-Aug-06 15:32N 55°52' E 012°50'0 0.0
2014-Aug-06 14:32N 55°52' E 012°50'0 0.0
2014-Aug-06 13:32N 55°52' E 012°50'0 0.0
2014-Aug-06 12:32N 55°52' E 012°50'0 0.0
2014-Aug-06 11:32N 55°52' E 012°50'0 0.0
2014-Aug-06 10:32N 55°52' E 012°50'0 0.0
2014-Aug-06 09:32N 55°52' E 012°50'0 0.0
2014-Aug-06 08:32N 55°52' E 012°50'0 0.0
2014-Aug-06 07:32N 55°52' E 012°50'0 0.0
2014-Aug-06 06:32N 55°52' E 012°50'0 0.0
2014-Aug-06 05:32N 55°52' E 012°50'0 0.0
2014-Aug-06 04:32N 55°52' E 012°50'0 0.0
2014-Aug-06 03:32N 55°52' E 012°50'0 0.0
2014-Aug-06 02:29N 55°52' E 012°50'0 0.0
2014-Aug-06 01:32N 55°52' E 012°50'0 0.0
2014-Aug-06 00:32N 55°52' E 012°50'0 0.0
2014-Aug-05 23:32N 55°52' E 012°50'0 0.0
2014-Aug-05 22:32N 55°52' E 012°50'0 0.0
2014-Aug-05 21:32N 55°52' E 012°50'0 0.0
2014-Aug-05 20:32N 55°52' E 012°50'0 0.0
2014-Aug-05 19:32N 55°52' E 012°50'0 0.0
2014-Aug-05 18:32N 55°52' E 012°50'0 0.0
2014-Aug-05 17:32N 55°52' E 012°50'0 0.0
2014-Aug-05 16:32N 55°52' E 012°50'0 0.0
2014-Aug-05 15:32N 55°52' E 012°50'0 0.0
2014-Aug-05 14:32N 55°52' E 012°50'0 0.0
2014-Aug-05 13:32N 55°52' E 012°50'0 0.0
2014-Aug-05 12:32N 55°52' E 012°50'0 0.0
2014-Aug-05 11:32N 55°52' E 012°50'0 0.0
2014-Aug-05 10:32N 55°52' E 012°50'0 0.0
2014-Aug-05 09:31N 55°52' E 012°50'0 0.0
2014-Aug-05 08:31N 55°52' E 012°50'0 0.0
2014-Aug-05 07:31N 55°52' E 012°50'0 0.0
2014-Aug-05 06:31N 55°52' E 012°50'0 0.0
2014-Aug-05 05:31N 55°52' E 012°50'0 0.0
2014-Aug-05 04:31N 55°52' E 012°50'0 0.0
2014-Aug-05 03:28N 55°52' E 012°50'0 0.0
2014-Aug-05 02:31N 55°52' E 012°50'0 0.0
2014-Aug-05 01:31N 55°52' E 012°50'0 0.0
2014-Aug-05 00:31N 55°52' E 012°50'0 0.0
2014-Aug-04 23:31N 55°52' E 012°50'0 0.0
2014-Aug-04 22:31N 55°52' E 012°50'0 0.0
2014-Aug-04 21:31N 55°52' E 012°50'0 0.0
2014-Aug-04 20:31N 55°52' E 012°50'0 0.0
2014-Aug-04 19:31N 55°52' E 012°50'0 0.0
2014-Aug-04 18:31N 55°52' E 012°50'0 0.0
2014-Aug-04 17:31N 55°52' E 012°50'0 0.0
2014-Aug-04 16:31N 55°52' E 012°50'0 0.0
2014-Aug-04 15:31N 55°52' E 012°50'0 0.0
2014-Aug-04 14:31N 55°52' E 012°50'0 0.0
2014-Aug-04 13:28N 55°52' E 012°50'0 0.0
2014-Aug-04 12:31N 55°52' E 012°50'0 0.0
2014-Aug-04 11:31N 55°52' E 012°50'0 0.0
2014-Aug-04 10:31N 55°52' E 012°50'0 0.0
2014-Aug-04 09:31N 55°52' E 012°50'0 0.0
2014-Aug-04 08:31N 55°52' E 012°50'0 0.0
2014-Aug-04 07:31N 55°52' E 012°50'  

Dump ship's entire track history